createdAt,value
2023-01-15T00:01:32.005Z,97.60
2023-01-15T00:04:04.921Z,98.10
2023-01-15T00:06:41.328Z,97.60
2023-01-15T00:09:13.825Z,97.50
2023-01-15T00:11:44.995Z,97.50
2023-01-15T00:14:16.063Z,97.60
2023-01-15T00:16:47.112Z,99.90
2023-01-15T00:19:18.162Z,99.90
2023-01-15T00:21:49.192Z,99.90
2023-01-15T00:24:38.339Z,99.90
2023-01-15T00:27:28.190Z,99.90
2023-01-15T00:29:59.277Z,99.90
2023-01-15T00:32:30.804Z,99.90
2023-01-15T00:35:04.756Z,99.90
2023-01-15T00:37:36.001Z,99.90
2023-01-15T00:40:07.640Z,99.90
2023-01-15T00:42:38.790Z,99.90
2023-01-15T00:45:14.227Z,99.90
2023-01-15T00:47:48.983Z,99.90
2023-01-15T00:50:20.606Z,99.90
2023-01-15T00:52:55.031Z,99.90
2023-01-15T00:55:29.689Z,99.90
2023-01-15T00:58:00.960Z,99.90
2023-01-15T01:00:32.151Z,99.90
2023-01-15T01:03:23.568Z,99.90
2023-01-15T01:05:54.926Z,99.90
2023-01-15T01:08:26.592Z,99.90
2023-01-15T01:11:11.981Z,99.90
2023-01-15T01:13:43.096Z,99.90
2023-01-15T01:16:31.828Z,99.90
2023-01-15T01:19:04.864Z,99.90
2023-01-15T01:21:36.296Z,99.90
2023-01-15T01:24:07.983Z,99.90
2023-01-15T01:26:40.145Z,99.90
2023-01-15T01:29:12.595Z,99.90
2023-01-15T01:31:44.031Z,99.90
2023-01-15T01:34:15.570Z,99.90
2023-01-15T01:36:47.486Z,99.90
2023-01-15T01:39:20.685Z,99.90
2023-01-15T01:41:53.114Z,99.90
2023-01-15T01:44:57.850Z,99.90
2023-01-15T01:47:31.104Z,99.90
2023-01-15T01:50:08.359Z,99.90
2023-01-15T01:52:49.740Z,99.90
2023-01-15T01:58:28.632Z,99.90
2023-01-15T02:00:59.880Z,99.90
2023-01-15T02:03:36.360Z,99.90
2023-01-15T02:06:10.183Z,99.90
2023-01-15T02:08:41.519Z,99.90
2023-01-15T02:11:15.239Z,99.80
2023-01-15T02:14:05.838Z,99.70
2023-01-15T02:17:05.547Z,99.60
2023-01-15T02:19:53.983Z,99.20
2023-01-15T02:22:33.654Z,98.90
2023-01-15T02:25:16.536Z,98.60
2023-01-15T02:27:56.133Z,98.80
2023-01-15T02:30:30.124Z,99.00
2023-01-15T02:33:07.870Z,99.00
2023-01-15T02:35:50.836Z,99.80
2023-01-15T02:38:27.432Z,99.90
2023-01-15T02:46:08.078Z,98.70
2023-01-15T02:48:41.569Z,98.90
2023-01-15T02:51:20.830Z,97.70
2023-01-15T02:53:53.713Z,97.40
2023-01-15T02:56:27.246Z,97.40
2023-01-15T02:59:05.004Z,97.30
2023-01-15T03:01:41.709Z,97.20
2023-01-15T03:04:32.913Z,97.10
2023-01-15T03:07:28.394Z,96.60
2023-01-15T03:10:01.197Z,96.50
2023-01-15T03:13:05.218Z,96.30
2023-01-15T03:15:56.179Z,95.00
2023-01-15T03:18:29.329Z,93.80
2023-01-15T03:21:02.913Z,93.90
2023-01-15T03:23:35.243Z,92.50
2023-01-15T03:26:07.798Z,92.90
2023-01-15T03:28:44.566Z,92.40
2023-01-15T03:31:14.942Z,93.30
2023-01-15T03:33:47.046Z,89.10
2023-01-15T03:36:18.323Z,73.40
2023-01-15T03:38:55.601Z,74.30
2023-01-15T03:41:44.590Z,73.80
2023-01-15T03:44:26.778Z,71.80
2023-01-15T03:47:09.016Z,70.90
2023-01-15T03:50:00.732Z,70.80
2023-01-15T03:52:46.397Z,70.90
2023-01-15T03:55:20.553Z,70.90
2023-01-15T03:58:14.876Z,73.40
2023-01-15T04:00:51.160Z,69.80
2023-01-15T04:03:27.792Z,68.80
2023-01-15T04:05:59.150Z,69.00
2023-01-15T04:08:33.593Z,69.10
2023-01-15T04:11:09.000Z,67.50
2023-01-15T04:13:40.962Z,64.90
2023-01-15T04:16:14.266Z,63.90
2023-01-15T04:18:54.327Z,62.30
2023-01-15T04:21:26.456Z,61.00
2023-01-15T04:23:57.592Z,61.80
2023-01-15T04:26:28.842Z,61.60
2023-01-15T04:29:00.191Z,59.70
2023-01-15T04:31:34.035Z,59.40
2023-01-15T04:34:06.148Z,59.20
2023-01-15T04:36:40.360Z,56.90
2023-01-15T04:39:12.534Z,56.60
2023-01-15T04:42:02.051Z,56.30
2023-01-15T04:44:33.104Z,56.40
2023-01-15T04:47:04.431Z,55.50
2023-01-15T04:49:36.271Z,56.30
2023-01-15T04:52:07.961Z,55.10
2023-01-15T04:54:40.335Z,55.50
2023-01-15T04:57:16.288Z,56.20
2023-01-15T04:59:51.163Z,55.60
2023-01-15T05:02:29.485Z,55.00
2023-01-15T05:05:01.170Z,54.60
2023-01-15T05:07:32.231Z,54.70
2023-01-15T05:10:03.375Z,54.50
2023-01-15T05:12:34.400Z,54.90
2023-01-15T05:15:07.307Z,52.80
2023-01-15T05:17:52.568Z,52.90
2023-01-15T05:20:31.114Z,52.20
2023-01-15T05:23:02.427Z,53.10
2023-01-15T05:25:33.582Z,51.20
2023-01-15T05:28:04.683Z,50.40
2023-01-15T05:30:39.109Z,49.10
2023-01-15T05:33:11.527Z,49.50
2023-01-15T05:35:43.101Z,49.50
2023-01-15T05:38:15.736Z,48.70
2023-01-15T05:40:46.763Z,50.10
2023-01-15T05:43:22.547Z,50.00
2023-01-15T05:45:54.320Z,49.00
2023-01-15T05:48:25.422Z,47.40
2023-01-15T05:50:56.456Z,47.50
2023-01-15T05:53:28.683Z,48.40
2023-01-15T05:56:01.098Z,48.40
2023-01-15T05:58:32.108Z,47.50
2023-01-15T06:01:03.271Z,46.30
2023-01-15T06:03:34.430Z,47.00
2023-01-15T06:06:06.234Z,46.70
2023-01-15T06:08:38.248Z,45.90
2023-01-15T06:11:09.308Z,45.50
2023-01-15T06:13:45.758Z,45.60
2023-01-15T06:16:17.423Z,45.60
2023-01-15T06:18:49.475Z,45.00
2023-01-15T06:21:21.608Z,41.90
2023-01-15T06:23:57.488Z,42.20
2023-01-15T06:26:47.428Z,41.90
2023-01-15T06:29:19.875Z,42.10
2023-01-15T06:31:51.961Z,44.90
2023-01-15T06:34:23.407Z,44.90
2023-01-15T06:36:58.260Z,44.50
2023-01-15T06:39:29.324Z,43.50
2023-01-15T06:42:17.941Z,43.80
2023-01-15T06:45:06.527Z,43.80
2023-01-15T06:47:37.955Z,44.90
2023-01-15T06:50:10.071Z,44.20
2023-01-15T06:52:41.762Z,43.60
2023-01-15T06:55:13.215Z,44.00
2023-01-15T06:58:05.041Z,41.80
2023-01-15T07:00:36.196Z,43.90
2023-01-15T07:03:12.282Z,42.10
2023-01-15T07:05:44.403Z,42.30
2023-01-15T07:08:15.538Z,43.90
2023-01-15T07:10:50.576Z,42.90
2023-01-15T07:13:21.625Z,42.40
2023-01-15T07:15:55.729Z,42.10
2023-01-15T07:18:28.926Z,42.30
2023-01-15T07:21:15.010Z,44.30
2023-01-15T07:23:46.457Z,42.00
2023-01-15T07:26:20.509Z,44.00
2023-01-15T07:28:59.086Z,42.20
2023-01-15T07:31:34.158Z,42.20
2023-01-15T07:34:05.266Z,42.50
2023-01-15T07:36:36.296Z,43.20
2023-01-15T07:39:13.781Z,43.60
2023-01-15T07:42:03.516Z,42.50
2023-01-15T07:45:00.108Z,43.30
2023-01-15T07:47:49.432Z,42.70
2023-01-15T07:50:27.721Z,43.90
2023-01-15T07:52:59.079Z,42.30
2023-01-15T07:55:30.630Z,43.80
2023-01-15T07:58:04.922Z,42.60
2023-01-15T08:00:36.503Z,44.30
2023-01-15T08:03:07.665Z,43.30
2023-01-15T08:05:39.278Z,43.30
2023-01-15T08:08:29.392Z,44.00
2023-01-15T08:11:20.406Z,43.90
2023-01-15T08:14:11.464Z,43.60
2023-01-15T08:16:52.077Z,43.20
2023-01-15T08:19:26.913Z,42.70
2023-01-15T08:21:59.351Z,43.60
2023-01-15T08:24:37.197Z,43.00
2023-01-15T08:27:28.296Z,42.90
2023-01-15T08:30:00.626Z,43.20
2023-01-15T08:35:32.528Z,42.70
2023-01-15T08:38:11.163Z,43.40
2023-01-15T08:40:43.678Z,43.10
2023-01-15T08:43:32.299Z,44.40
2023-01-15T08:46:06.247Z,43.30
2023-01-15T08:48:43.948Z,43.80
2023-01-15T08:51:16.037Z,43.90
2023-01-15T08:53:49.769Z,43.30
2023-01-15T08:56:21.875Z,42.70
2023-01-15T08:58:55.826Z,42.90
2023-01-15T09:01:27.130Z,43.10
2023-01-15T09:03:59.451Z,43.50
2023-01-15T09:06:32.011Z,43.70
2023-01-15T09:09:03.470Z,43.70
2023-01-15T09:11:34.558Z,43.40
2023-01-15T09:14:05.658Z,43.70
2023-01-15T09:16:37.830Z,43.30
2023-01-15T09:19:09.881Z,43.80
2023-01-15T09:21:42.954Z,43.70
2023-01-15T09:24:14.218Z,43.40
2023-01-15T09:26:55.024Z,43.70
2023-01-15T09:29:26.175Z,43.70
2023-01-15T09:31:57.206Z,43.90
2023-01-15T09:34:28.331Z,44.10
2023-01-15T09:36:59.375Z,44.10
2023-01-15T09:39:30.567Z,43.80
2023-01-15T09:42:13.942Z,44.60
2023-01-15T09:44:58.925Z,44.50
2023-01-15T09:47:44.480Z,44.10
2023-01-15T09:50:32.697Z,43.70
2023-01-15T09:53:06.044Z,43.90
2023-01-15T09:55:39.409Z,44.20
2023-01-15T09:58:12.622Z,44.50
2023-01-15T10:00:45.843Z,44.40
2023-01-15T10:03:28.696Z,44.40
2023-01-15T10:06:13.919Z,44.70
2023-01-15T10:08:52.956Z,45.00
2023-01-15T10:11:30.157Z,45.80
2023-01-15T10:14:06.673Z,45.40
2023-01-15T10:16:36.515Z,45.10
2023-01-15T10:19:07.692Z,46.20
2023-01-15T10:21:53.109Z,45.70
2023-01-15T10:24:38.647Z,46.60
2023-01-15T10:27:24.009Z,46.90
2023-01-15T10:30:06.422Z,47.30
2023-01-15T10:33:03.140Z,47.40
2023-01-15T10:35:53.445Z,47.40
2023-01-15T10:38:38.533Z,47.30
2023-01-15T10:41:29.930Z,48.10
2023-01-15T10:44:15.052Z,48.20
2023-01-15T10:46:48.489Z,48.90
2023-01-15T10:49:22.567Z,48.30
2023-01-15T10:52:07.580Z,47.80
2023-01-15T10:54:49.885Z,48.20
2023-01-15T10:57:35.270Z,47.70
2023-01-15T11:00:09.783Z,48.60
2023-01-15T11:02:48.669Z,49.00
2023-01-15T11:05:22.273Z,49.30
2023-01-15T11:08:26.369Z,49.50
2023-01-15T11:10:27.630Z,49.00
2023-01-15T11:13:21.395Z,50.10
2023-01-15T11:16:10.763Z,50.30
2023-01-15T11:19:04.139Z,50.70
2023-01-15T11:21:35.687Z,50.40
2023-01-15T11:24:07.153Z,50.60
2023-01-15T11:26:38.237Z,51.50
2023-01-15T11:29:20.413Z,51.70
2023-01-15T11:31:51.447Z,51.40
2023-01-15T11:34:25.317Z,52.70
2023-01-15T11:37:09.048Z,52.90
2023-01-15T11:39:41.379Z,53.20
2023-01-15T11:42:34.629Z,53.60
2023-01-15T11:45:23.250Z,53.60
2023-01-15T11:48:13.855Z,53.60
2023-01-15T11:51:00.271Z,53.80
2023-01-15T11:53:31.595Z,55.10
2023-01-15T11:56:09.276Z,54.70
2023-01-15T11:58:49.260Z,54.50
2023-01-15T12:01:38.163Z,54.50
2023-01-15T12:04:15.769Z,54.80
2023-01-15T12:07:02.780Z,55.20
2023-01-15T12:09:26.490Z,55.80
2023-01-15T12:12:06.202Z,54.20
2023-01-15T12:14:46.269Z,53.90
2023-01-15T12:17:37.470Z,54.10
2023-01-15T12:20:32.186Z,54.50
2023-01-15T12:23:40.125Z,53.80
2023-01-15T12:26:30.785Z,53.60
2023-01-15T12:29:18.203Z,54.50
2023-01-15T12:31:45.325Z,54.30
2023-01-15T12:34:18.665Z,54.30
2023-01-15T12:37:07.700Z,54.80
2023-01-15T12:39:46.606Z,54.70
2023-01-15T12:42:40.590Z,54.90
2023-01-15T12:45:21.731Z,54.40
2023-01-15T12:48:17.691Z,54.60
2023-01-15T12:50:58.224Z,54.30
2023-01-15T12:53:31.610Z,54.20
2023-01-15T12:56:13.948Z,54.50
2023-01-15T13:02:47.753Z,55.10
2023-01-15T13:05:00.536Z,55.20
2023-01-15T13:07:46.818Z,55.60
2023-01-15T13:10:36.112Z,56.10
2023-01-15T13:13:37.435Z,56.70
2023-01-15T13:16:27.774Z,57.20
2023-01-15T13:19:14.298Z,57.70
2023-01-15T13:21:47.972Z,58.10
2023-01-15T13:25:13.515Z,58.50
2023-01-15T13:28:09.558Z,59.40
2023-01-15T13:30:55.030Z,59.50
2023-01-15T13:33:44.702Z,60.10
2023-01-15T13:36:23.326Z,61.00
2023-01-15T13:39:08.585Z,61.90
2023-01-15T13:42:03.442Z,62.00
2023-01-15T13:44:34.201Z,62.00
2023-01-15T13:47:10.676Z,62.50
2023-01-15T13:49:46.767Z,62.60
2023-01-15T13:52:25.881Z,62.20
2023-01-15T13:55:00.027Z,62.00
2023-01-15T13:57:39.347Z,62.00
2023-01-15T14:00:12.662Z,61.90
2023-01-15T14:02:45.100Z,61.90
2023-01-15T14:05:33.860Z,62.10
2023-01-15T14:08:19.186Z,62.10
2023-01-15T14:10:51.162Z,62.20
2023-01-15T14:13:49.447Z,62.70
2023-01-15T14:16:31.583Z,62.90
2023-01-15T14:19:24.949Z,63.00
2023-01-15T14:22:22.170Z,63.10
2023-01-15T14:25:10.731Z,63.40
2023-01-15T14:27:45.410Z,63.30
2023-01-15T14:30:33.724Z,63.20
2023-01-15T14:33:07.101Z,63.20
2023-01-15T14:35:46.531Z,63.50
2023-01-15T14:38:23.314Z,63.50
2023-01-15T14:40:54.530Z,63.60
2023-01-15T14:43:27.257Z,63.40
2023-01-15T14:46:00.780Z,63.50
2023-01-15T14:48:34.333Z,63.30
2023-01-15T14:51:16.640Z,63.40
2023-01-15T14:53:56.229Z,63.50
2023-01-15T14:56:39.827Z,63.30
2023-01-15T14:59:28.973Z,63.40
2023-01-15T15:02:03.121Z,63.10
2023-01-15T15:04:39.738Z,61.10
2023-01-15T15:07:24.244Z,60.10
2023-01-15T15:10:11.394Z,59.70
2023-01-15T15:12:50.848Z,59.40
2023-01-15T15:15:30.029Z,59.90
2023-01-15T15:18:21.755Z,59.70
2023-01-15T15:21:22.307Z,59.80
2023-01-15T15:24:21.285Z,60.60
2023-01-15T15:26:52.411Z,60.30
2023-01-15T15:29:24.815Z,60.60
2023-01-15T15:31:58.165Z,61.00
2023-01-15T15:34:41.363Z,61.30
2023-01-15T15:37:29.749Z,62.50
2023-01-15T15:40:09.861Z,61.90
2023-01-15T15:43:03.277Z,62.00
2023-01-15T15:45:52.543Z,62.20
2023-01-15T15:48:51.537Z,62.30
2023-01-15T15:51:43.927Z,62.40
2023-01-15T15:54:22.756Z,63.10
2023-01-15T15:57:06.611Z,63.60
2023-01-15T15:59:52.314Z,62.80
2023-01-15T16:02:37.703Z,63.20
2023-01-15T16:05:18.464Z,63.10
2023-01-15T16:07:49.518Z,63.80
2023-01-15T16:10:36.976Z,64.00
2023-01-15T16:13:09.910Z,64.50
2023-01-15T16:15:43.353Z,64.40
2023-01-15T16:18:16.927Z,64.10
2023-01-15T16:20:48.115Z,64.70
2023-01-15T16:23:30.169Z,64.30
2023-01-15T16:26:09.725Z,64.60
2023-01-15T16:28:44.552Z,64.70
2023-01-15T16:31:17.685Z,64.70
2023-01-15T16:34:24.182Z,64.40
2023-01-15T16:36:27.616Z,64.90
2023-01-15T16:39:00.107Z,65.60
2023-01-15T16:41:36.962Z,66.50
2023-01-15T16:44:13.235Z,67.30
2023-01-15T16:46:44.364Z,68.50
2023-01-15T16:49:26.775Z,68.10
2023-01-15T16:52:00.473Z,69.60
2023-01-15T16:54:38.327Z,70.60
2023-01-15T16:57:23.477Z,71.10
2023-01-15T17:00:10.399Z,71.80
2023-01-15T17:02:46.293Z,72.30
2023-01-15T17:05:31.241Z,72.80
2023-01-15T17:08:04.781Z,73.20
2023-01-15T17:10:35.944Z,73.70
2023-01-15T17:13:22.387Z,74.00
2023-01-15T17:15:54.002Z,74.20
2023-01-15T17:18:29.422Z,74.30
2023-01-15T17:21:01.561Z,75.10
2023-01-15T17:23:36.120Z,75.10
2023-01-15T17:26:09.090Z,75.40
2023-01-15T17:28:40.132Z,75.80
2023-01-15T17:31:14.219Z,75.80
2023-01-15T17:33:47.871Z,76.10
2023-01-15T17:36:20.652Z,76.30
2023-01-15T17:38:53.842Z,76.90
2023-01-15T17:41:25.570Z,76.80
2023-01-15T17:44:00.573Z,77.10
2023-01-15T17:46:31.663Z,77.00
2023-01-15T17:49:02.779Z,77.10
2023-01-15T17:51:33.839Z,77.20
2023-01-15T17:54:04.915Z,77.50
2023-01-15T17:56:53.660Z,77.50
2023-01-15T17:59:45.232Z,77.30
2023-01-15T18:02:31.393Z,77.40
2023-01-15T18:05:19.819Z,77.40
2023-01-15T18:07:50.871Z,78.80
2023-01-15T18:10:23.380Z,77.80
2023-01-15T18:12:57.692Z,78.30
2023-01-15T18:15:31.267Z,78.30
2023-01-15T18:18:02.511Z,78.60
2023-01-15T18:20:36.862Z,79.00
2023-01-15T18:23:13.793Z,79.00
2023-01-15T18:25:42.735Z,79.20
2023-01-15T18:28:13.913Z,79.50
2023-01-15T18:30:45.921Z,79.80
2023-01-15T18:33:16.979Z,80.10
2023-01-15T18:35:48.151Z,80.20
2023-01-15T18:38:19.259Z,80.20
2023-01-15T18:40:50.909Z,79.90
2023-01-15T18:43:39.461Z,80.00
2023-01-15T18:46:17.257Z,97.80
2023-01-15T18:48:48.408Z,85.10
2023-01-15T18:51:19.493Z,81.20
2023-01-15T18:53:52.639Z,93.20
2023-01-15T18:56:41.093Z,85.80
2023-01-15T18:59:18.408Z,86.50
2023-01-15T19:01:49.586Z,86.60
2023-01-15T19:04:20.777Z,87.30
2023-01-15T19:06:51.821Z,88.00
2023-01-15T19:09:24.656Z,88.40
2023-01-15T19:11:57.099Z,88.50
2023-01-15T19:14:45.882Z,88.80
2023-01-15T19:17:39.994Z,89.30
2023-01-15T19:20:12.718Z,89.40
2023-01-15T19:23:05.382Z,90.00
2023-01-15T19:25:43.673Z,90.10
2023-01-15T19:28:19.482Z,90.30
2023-01-15T19:30:52.716Z,90.60
2023-01-15T19:33:23.799Z,91.20
2023-01-15T19:35:56.369Z,91.20
2023-01-15T19:38:27.426Z,91.30
2023-01-15T19:40:59.819Z,91.40
2023-01-15T19:43:48.653Z,92.10
2023-01-15T19:46:37.040Z,91.80
2023-01-15T19:49:27.587Z,91.70
2023-01-15T19:52:16.319Z,92.10
2023-01-15T19:55:00.876Z,92.30
2023-01-15T19:57:32.239Z,93.50
2023-01-15T20:00:03.263Z,98.90
2023-01-15T20:02:38.757Z,99.90
2023-01-15T20:10:16.197Z,99.90
2023-01-15T20:13:05.085Z,99.90
2023-01-15T20:15:36.158Z,99.90
2023-01-15T20:23:14.583Z,99.90
2023-01-15T20:25:46.911Z,99.90
2023-01-15T21:06:56.440Z,99.90
2023-01-15T21:09:27.472Z,89.70
2023-01-15T21:11:58.531Z,89.70
2023-01-15T21:14:29.551Z,89.80
2023-01-15T21:17:00.614Z,89.80
2023-01-15T21:19:32.168Z,90.00
2023-01-15T21:22:03.193Z,90.00
2023-01-15T21:24:35.162Z,90.10
2023-01-15T21:27:06.211Z,90.10
2023-01-15T21:29:37.314Z,91.20
2023-01-15T21:32:08.564Z,91.90
2023-01-15T21:34:39.606Z,90.60
2023-01-15T21:37:10.664Z,90.80
2023-01-15T21:39:41.765Z,91.20
2023-01-15T21:42:39.261Z,92.60
2023-01-15T21:45:12.589Z,92.20
2023-01-15T21:47:43.627Z,91.30
2023-01-15T21:50:14.916Z,90.80
2023-01-15T21:52:45.964Z,90.90
2023-01-15T21:55:17.223Z,91.60
2023-01-15T21:57:49.599Z,94.40
2023-01-15T22:00:21.674Z,91.40
2023-01-15T22:02:59.423Z,91.40
2023-01-15T22:05:30.518Z,92.20
2023-01-15T22:08:02.843Z,93.80
2023-01-15T22:10:34.101Z,95.30
2023-01-15T22:13:05.169Z,95.60
2023-01-15T22:15:36.193Z,95.20
2023-01-15T22:18:07.351Z,96.80
2023-01-15T22:20:38.836Z,97.30
2023-01-15T22:23:09.893Z,99.00
2023-01-15T22:25:42.190Z,98.90
2023-01-15T22:28:13.263Z,97.60
2023-01-15T22:30:44.310Z,97.20
2023-01-15T22:33:15.471Z,99.30
2023-01-15T22:35:46.520Z,96.20
2023-01-15T22:38:17.557Z,95.40
2023-01-15T22:40:48.606Z,94.30
2023-01-15T22:43:19.652Z,93.90
2023-01-15T22:45:50.701Z,91.60
2023-01-15T22:48:21.788Z,92.70
2023-01-15T22:50:52.932Z,91.20
2023-01-15T22:53:24.147Z,91.30
2023-01-15T22:56:02.168Z,91.30
2023-01-15T22:58:33.236Z,91.40
2023-01-15T23:01:04.368Z,91.40
2023-01-15T23:03:37.083Z,91.40
2023-01-15T23:06:13.302Z,91.40
2023-01-15T23:08:44.461Z,91.50
2023-01-15T23:11:17.599Z,91.90
2023-01-15T23:13:49.352Z,91.60
2023-01-15T23:16:21.047Z,91.60
2023-01-15T23:18:52.526Z,91.70
2023-01-15T23:21:25.348Z,92.10
2023-01-15T23:23:59.059Z,92.10
2023-01-15T23:26:32.424Z,91.70
2023-01-15T23:29:04.233Z,91.70
2023-01-15T23:31:35.835Z,91.70
2023-01-15T23:34:06.846Z,91.70
2023-01-15T23:36:37.902Z,91.70
2023-01-15T23:39:08.931Z,91.60
2023-01-15T23:41:57.216Z,91.70
2023-01-15T23:44:46.069Z,91.80
2023-01-15T23:47:17.104Z,91.70
2023-01-15T23:49:48.147Z,91.90
2023-01-15T23:52:19.588Z,91.90
2023-01-15T23:54:52.341Z,92.00
2023-01-15T23:57:23.348Z,92.00
2023-01-15T23:59:54.365Z,92.10
